Time;durP1;ratioP1;P1;durP2;ratioP2;P2;SDS_P1;SDS_P2;PMS_P1;PMS_P2;Temp;Humidity;BMP_temperature;BMP_pressure;BME280_temperature;BME280_humidity;BME280_pressure;Samples;Min_cycle;Max_cycle;Signal;HPM_P1;HPM_P2
2021/05/10 00:00:09;;;;;;;2.20;2.10;;;;;;;19.42;44.23;100200.34;689706;28;21365;-65
2021/05/10 00:00:38;;;;;;;2.25;2.15;;;;;;;19.40;44.01;100197.88;688318;28;59487;-65
2021/05/10 00:01:01;;;;;;;2.65;2.45;;;;;;;19.39;43.85;100190.72;688444;28;44613;-65
2021/05/10 00:01:23;;;;;;;2.38;2.28;;;;;;;19.40;43.97;100195.13;686905;28;68366;-65
2021/05/10 00:01:44;;;;;;;2.10;2.00;;;;;;;19.41;43.78;100202.25;687800;28;39426;-65
2021/05/10 00:02:06;;;;;;;2.38;2.17;;;;;;;19.41;44.18;100202.25;688884;28;22395;-65
2021/05/10 00:02:27;;;;;;;2.20;2.00;;;;;;;19.42;44.25;100200.34;689007;28;10234;-65
2021/05/10 00:02:48;;;;;;;2.22;2.03;;;;;;;19.42;44.01;100203.09;689263;28;9953;-65
2021/05/10 00:03:09;;;;;;;3.13;2.20;;;;;;;19.40;44.09;100199.75;688791;28;18800;-65
2021/05/10 00:03:30;;;;;;;2.30;2.10;;;;;;;19.41;44.04;100201.44;688090;28;23238;-65
2021/05/10 00:03:51;;;;;;;2.13;2.03;;;;;;;19.42;43.96;100205.84;687469;28;46577;-65
2021/05/10 00:04:12;;;;;;;4.00;2.20;;;;;;;19.40;43.89;100197.88;688081;28;21533;-65
2021/05/10 00:04:34;;;;;;;2.92;2.35;;;;;;;19.41;43.90;100196.78;688180;28;22194;-65
2021/05/10 00:04:55;;;;;;;2.40;2.30;;;;;;;19.39;43.76;100198.94;688377;28;21547;-65
2021/05/10 00:05:17;;;;;;;2.20;2.10;;;;;;;19.39;44.01;100203.59;688122;28;22339;-65
2021/05/10 00:05:38;;;;;;;3.45;2.10;;;;;;;19.38;44.05;100202.75;687595;28;46296;-66
2021/05/10 00:05:59;;;;;;;2.80;2.10;;;;;;;19.38;44.02;100204.66;688631;28;21480;-66
2021/05/10 00:06:21;;;;;;;2.10;2.00;;;;;;;19.39;44.28;100200.84;692018;28;983;-65
2021/05/10 00:06:42;;;;;;;2.33;2.20;;;;;;;19.37;44.18;100195.63;690480;28;23517;-65
2021/05/10 00:07:03;;;;;;;2.30;2.20;;;;;;;19.36;44.06;100199.44;691387;28;15315;-65
2021/05/10 00:07:24;;;;;;;2.70;2.10;;;;;;;19.36;43.95;100198.63;689304;28;11253;-65
2021/05/10 00:07:45;;;;;;;2.97;2.33;;;;;;;19.36;44.04;100198.63;688940;28;17189;-65
2021/05/10 00:08:07;;;;;;;2.92;2.50;;;;;;;19.36;44.32;100204.09;687557;28;39110;-65
2021/05/10 00:08:28;;;;;;;2.03;1.92;;;;;;;19.36;44.22;100196.69;687746;28;17764;-65
2021/05/10 00:08:49;;;;;;;2.67;2.47;;;;;;;19.36;43.89;100202.16;686106;28;21522;-65
2021/05/10 00:09:11;;;;;;;2.70;2.50;;;;;;;19.36;44.08;100204.09;686183;28;23425;-65
2021/05/10 00:09:32;;;;;;;3.63;2.38;;;;;;;19.36;44.25;100198.63;687027;28;44475;-66
2021/05/10 00:09:53;;;;;;;20.30;3.47;;;;;;;19.36;43.85;100198.63;688380;28;23832;-66
2021/05/10 00:10:14;;;;;;;2.30;2.20;;;;;;;19.35;44.29;100203.25;688595;28;1916;-66
2021/05/10 00:10:36;;;;;;;2.50;2.30;;;;;;;19.35;44.20;100205.16;688988;28;9843;-66
2021/05/10 00:10:58;;;;;;;2.20;2.10;;;;;;;19.34;44.20;100198.00;687197;28;43366;-65
2021/05/10 00:11:19;;;;;;;2.40;2.20;;;;;;;19.31;43.90;100204.84;687284;28;45274;-65
2021/05/10 00:11:40;;;;;;;2.53;2.22;;;;;;;19.32;44.08;100202.91;687619;28;22498;-65
2021/05/10 00:12:01;;;;;;;2.25;2.10;;;;;;;19.31;44.13;100202.09;688625;28;23429;-66
2021/05/10 00:12:23;;;;;;;3.20;2.22;;;;;;;19.32;44.12;100200.19;688589;28;22404;-65
2021/05/10 00:12:45;;;;;;;3.17;2.20;;;;;;;19.31;44.07;100202.09;689356;28;890;-65
2021/05/10 00:13:07;;;;;;;2.15;2.05;;;;;;;19.32;44.17;100203.75;688555;28;23983;-65
2021/05/10 00:13:34;;;;;;;2.13;2.03;;;;;;;19.30;44.10;100202.34;685563;28;83098;-65
2021/05/10 00:13:56;;;;;;;2.20;2.10;;;;;;;19.27;44.08;100207.22;688892;28;35125;-65
2021/05/10 00:14:26;;;;;;;2.40;2.20;;;;;;;19.27;44.13;100203.66;688917;28;44403;-66
2021/05/10 00:14:48;;;;;;;2.35;2.20;;;;;;;19.27;44.08;100203.66;685730;28;138474;-65
2021/05/10 00:15:10;;;;;;;2.38;2.28;;;;;;;19.25;44.09;100201.16;688843;28;34643;-65
2021/05/10 00:15:32;;;;;;;2.90;2.15;;;;;;;19.24;44.34;100198.69;688799;28;46402;-65
2021/05/10 00:15:55;;;;;;;2.47;2.25;;;;;;;19.25;44.41;100203.09;688971;28;22333;-65
2021/05/10 00:16:16;;;;;;;2.40;2.30;;;;;;;19.25;44.17;100205.81;687418;28;49284;-66
2021/05/10 00:16:40;;;;;;;2.13;2.03;;;;;;;19.23;44.30;100199.75;689280;28;13495;-66
2021/05/10 00:17:01;;;;;;;2.55;1.95;;;;;;;19.23;44.24;100197.00;690261;28;8848;-66
2021/05/10 00:17:22;;;;;;;2.53;2.10;;;;;;;19.21;44.26;100201.91;689763;28;17109;-66
2021/05/10 00:17:43;;;;;;;2.58;2.00;;;;;;;19.23;44.14;100206.06;689859;28;14801;-65
2021/05/10 00:18:05;;;;;;;2.20;1.90;;;;;;;19.23;44.29;100205.22;688746;28;46358;-65
2021/05/10 00:18:26;;;;;;;2.20;2.00;;;;;;;19.22;44.08;100206.31;689100;28;21236;-65
2021/05/10 00:18:48;;;;;;;2.25;2.15;;;;;;;19.23;44.13;100197.00;688690;28;22418;-65
2021/05/10 00:19:09;;;;;;;2.85;2.33;;;;;;;19.23;44.07;100197.00;688341;28;44412;-66
2021/05/10 00:19:30;;;;;;;2.20;2.10;;;;;;;19.22;43.87;100200.84;687991;28;22389;-66
2021/05/10 00:19:51;;;;;;;2.33;2.10;;;;;;;19.22;44.33;100198.09;688784;28;23512;-65
2021/05/10 00:20:13;;;;;;;4.50;2.20;;;;;;;19.21;44.33;100193.69;688151;28;23363;-65
2021/05/10 00:20:35;;;;;;;5.13;2.30;;;;;;;19.21;44.12;100199.19;687445;28;44101;-65
2021/05/10 00:20:57;;;;;;;2.60;2.40;;;;;;;19.21;43.91;100196.44;686849;28;69438;-65
2021/05/10 00:21:18;;;;;;;2.42;2.30;;;;;;;19.21;44.18;100193.69;688510;28;22438;-65
2021/05/10 00:21:39;;;;;;;2.45;2.25;;;;;;;19.21;44.39;100202.72;688385;28;21536;-65
2021/05/10 00:22:00;;;;;;;2.25;2.05;;;;;;;19.21;44.30;100196.44;688644;28;22402;-66
2021/05/10 00:22:22;;;;;;;2.42;2.25;;;;;;;19.19;44.13;100195.88;688717;28;21382;-66
2021/05/10 00:22:43;;;;;;;2.35;2.20;;;;;;;19.19;44.40;100190.38;687382;28;45262;-65
2021/05/10 00:23:05;;;;;;;2.50;2.30;;;;;;;19.18;44.18;100191.44;687973;28;23490;-65
2021/05/10 00:23:26;;;;;;;2.63;2.42;;;;;;;19.19;44.18;100199.41;688825;28;1953;-65
2021/05/10 00:23:47;;;;;;;2.58;2.20;;;;;;;19.17;44.22;100198.84;688760;28;23497;-66
2021/05/10 00:24:09;;;;;;;2.15;2.00;;;;;;;19.17;44.04;100196.09;688604;28;22362;-66
2021/05/10 00:24:30;;;;;;;2.28;2.08;;;;;;;19.17;44.03;100198.00;688949;28;23503;-65
2021/05/10 00:24:51;;;;;;;2.33;2.13;;;;;;;19.16;44.32;100196.34;688680;28;23421;-65
2021/05/10 00:25:14;;;;;;;2.17;2.08;;;;;;;19.15;44.54;100197.44;688197;28;14969;-65
2021/05/10 00:25:36;;;;;;;2.47;2.28;;;;;;;19.13;44.40;100197.66;688624;28;23452;-66
2021/05/10 00:25:57;;;;;;;2.53;2.33;;;;;;;19.13;44.58;100191.38;688049;28;37726;-65
2021/05/10 00:26:19;;;;;;;2.45;2.20;;;;;;;19.12;44.30;100196.00;688784;28;1191;-65
2021/05/10 00:26:40;;;;;;;2.20;2.10;;;;;;;19.11;44.31;100197.09;687680;28;23537;-65
2021/05/10 00:27:01;;;;;;;2.35;2.15;;;;;;;19.09;44.44;100194.59;687946;28;28531;-65
2021/05/10 00:27:22;;;;;;;2.35;2.17;;;;;;;19.08;44.08;100200.31;689729;28;18633;-65
2021/05/10 00:27:43;;;;;;;2.30;2.10;;;;;;;19.07;44.16;100198.66;689814;28;12882;-65
2021/05/10 00:28:05;;;;;;;2.15;2.05;;;;;;;19.07;44.00;100196.78;689566;28;21965;-66
2021/05/10 00:28:26;;;;;;;3.70;2.20;;;;;;;19.06;44.21;100197.00;688990;28;22544;-66
2021/05/10 00:28:47;;;;;;;2.63;2.03;;;;;;;19.03;44.28;100200.25;689191;28;38421;-66
2021/05/10 00:29:08;;;;;;;3.97;2.13;;;;;;;19.01;44.39;100191.44;690123;28;14162;-65
2021/05/10 00:29:29;;;;;;;5.07;2.10;;;;;;;18.99;44.40;100194.41;690318;28;14822;-65
2021/05/10 00:29:51;;;;;;;2.20;2.00;;;;;;;18.96;44.24;100194.91;688676;28;23519;-65
2021/05/10 00:30:13;;;;;;;1.92;1.83;;;;;;;18.98;44.15;100198.25;688101;28;21550;-66
2021/05/10 00:30:34;;;;;;;2.03;1.92;;;;;;;18.97;44.34;100204.78;687736;28;36448;-65
2021/05/10 00:30:57;;;;;;;2.10;2.00;;;;;;;18.96;44.21;100196.81;687681;28;39048;-65
2021/05/10 00:31:18;;;;;;;2.10;2.00;;;;;;;18.95;44.60;100189.69;687574;28;45040;-65
2021/05/10 00:31:39;;;;;;;2.10;2.00;;;;;;;18.95;44.39;100201.47;687283;28;45170;-66
2021/05/10 00:32:01;;;;;;;2.15;2.05;;;;;;;18.94;44.22;100197.06;688770;28;22405;-65
2021/05/10 00:32:22;;;;;;;2.35;2.25;;;;;;;18.93;44.39;100197.31;688621;28;23417;-66
2021/05/10 00:32:43;;;;;;;2.10;2.00;;;;;;;18.92;44.50;100204.69;688831;28;906;-65
2021/05/10 00:33:05;;;;;;;2.03;1.92;;;;;;;18.91;44.62;100200.28;690033;28;1527;-66
2021/05/10 00:33:26;;;;;;;2.80;2.00;;;;;;;18.89;44.33;100197.81;688924;28;33387;-66
2021/05/10 00:33:47;;;;;;;2.10;2.00;;;;;;;18.88;44.74;100195.31;689842;28;23392;-66
2021/05/10 00:34:08;;;;;;;2.25;2.05;;;;;;;18.86;44.58;100198.28;689728;28;23472;-65
2021/05/10 00:34:29;;;;;;;3.05;2.22;;;;;;;18.84;44.77;100194.97;689707;28;21968;-65
2021/05/10 00:34:52;;;;;;;3.28;2.22;;;;;;;18.85;44.54;100195.81;689054;28;30189;-65
2021/05/10 00:35:14;;;;;;;2.60;2.10;;;;;;;18.85;44.61;100201.28;686316;28;58764;-66
2021/05/10 00:35:35;;;;;;;2.38;1.90;;;;;;;18.83;44.95;100204.22;687453;28;46282;-65
2021/05/10 00:35:56;;;;;;;2.15;1.98;;;;;;;18.83;44.55;100201.47;688222;28;23500;-65
2021/05/10 00:36:17;;;;;;;2.28;2.08;;;;;;;18.81;44.53;100206.38;688513;28;15978;-65
2021/05/10 00:36:38;;;;;;;2.00;1.90;;;;;;;18.80;44.73;100201.16;688309;28;8456;-65
2021/05/10 00:37:01;;;;;;;3.30;2.13;;;;;;;18.79;44.89;100208.50;688857;28;983;-65
2021/05/10 00:37:22;;;;;;;4.40;2.28;;;;;;;18.80;44.82;100209.34;689450;28;1054;-65
2021/05/10 00:37:43;;;;;;;3.72;2.08;;;;;;;18.78;44.74;100197.81;688693;28;19657;-65
2021/05/10 00:38:05;;;;;;;2.70;2.20;;;;;;;18.76;44.79;100199.97;689182;28;965;-65
2021/05/10 00:38:26;;;;;;;2.38;2.17;;;;;;;18.73;44.64;100198.56;687725;28;28326;-65
2021/05/10 00:38:47;;;;;;;2.00;1.90;;;;;;;18.75;44.78;100203.78;689031;28;13238;-65
2021/05/10 00:39:08;;;;;;;3.67;1.88;;;;;;;18.75;44.70;100192.84;688499;28;23523;-65
2021/05/10 00:39:30;;;;;;;3.10;2.10;;;;;;;18.75;44.90;100201.88;687982;28;23786;-65
2021/05/10 00:39:51;;;;;;;2.53;2.10;;;;;;;18.74;44.76;100194.75;687130;28;19818;-65
2021/05/10 00:40:14;;;;;;;2.20;2.10;;;;;;;18.72;44.93;100203.19;686995;28;19505;-65
2021/05/10 00:40:35;;;;;;;2.08;1.98;;;;;;;18.72;44.78;100205.94;685219;28;68395;-65
2021/05/10 00:40:56;;;;;;;2.13;1.93;;;;;;;18.71;44.83;100207.03;686798;28;28976;-65
2021/05/10 00:41:18;;;;;;;2.22;2.13;;;;;;;18.70;44.75;100199.88;687701;28;993;-65
2021/05/10 00:41:39;;;;;;;2.00;1.90;;;;;;;18.69;44.62;100200.94;687082;28;18490;-65
2021/05/10 00:42:00;;;;;;;2.05;1.95;;;;;;;18.69;44.64;100206.41;688769;28;22415;-65
2021/05/10 00:42:22;;;;;;;2.20;2.10;;;;;;;18.69;44.76;100205.59;688571;28;21524;-65
2021/05/10 00:42:43;;;;;;;2.22;2.03;;;;;;;18.68;44.71;100201.19;689906;28;14208;-65
2021/05/10 00:43:05;;;;;;;2.40;2.20;;;;;;;18.68;45.08;100206.66;690075;28;8873;-65
2021/05/10 00:43:26;;;;;;;2.15;2.03;;;;;;;18.65;44.81;100205.25;688417;28;37580;-65
2021/05/10 00:43:47;;;;;;;2.33;1.80;;;;;;;18.65;44.75;100204.41;689479;28;22402;-65
2021/05/10 00:44:08;;;;;;;2.20;2.00;;;;;;;18.65;44.93;100202.53;689572;28;21285;-65
2021/05/10 00:44:29;;;;;;;2.42;2.20;;;;;;;18.67;44.99;100202.28;689611;28;16968;-65
2021/05/10 00:44:50;;;;;;;2.40;2.20;;;;;;;18.66;44.82;100203.34;687790;28;44207;-65
2021/05/10 00:45:12;;;;;;;2.15;2.05;;;;;;;18.66;44.76;100203.34;687900;28;23477;-65
2021/05/10 00:45:34;;;;;;;2.05;1.95;;;;;;;18.64;44.94;100198.13;689486;28;874;-65
2021/05/10 00:45:56;;;;;;;2.05;1.95;;;;;;;18.64;44.91;100203.59;688464;28;22404;-65
2021/05/10 00:46:17;;;;;;;2.20;2.10;;;;;;;18.64;44.97;100202.78;688748;28;40987;-65
2021/05/10 00:46:39;;;;;;;2.63;1.92;;;;;;;18.62;44.63;100203.00;689573;28;9011;-65
2021/05/10 00:47:00;;;;;;;3.30;2.10;;;;;;;18.62;45.03;100203.00;689142;28;35520;-65
2021/05/10 00:47:21;;;;;;;2.20;2.00;;;;;;;18.61;44.86;100203.25;689586;28;23518;-65
2021/05/10 00:47:42;;;;;;;2.17;1.98;;;;;;;18.60;44.86;100207.88;690440;28;1059;-64
2021/05/10 00:48:04;;;;;;;2.00;1.90;;;;;;;18.58;44.72;100201.00;689159;28;44163;-65
2021/05/10 00:48:25;;;;;;;5.82;2.10;;;;;;;18.59;44.54;100200.75;690172;28;23413;-65
2021/05/10 00:48:47;;;;;;;5.88;2.15;;;;;;;18.58;44.86;100204.56;690817;28;15075;-64
2021/05/10 00:49:08;;;;;;;2.30;2.08;;;;;;;18.57;44.76;100197.41;689905;28;39355;-64
2021/05/10 00:49:29;;;;;;;2.42;2.22;;;;;;;18.55;44.96;100196.84;689868;28;17653;-64
2021/05/10 00:49:50;;;;;;;2.20;2.10;;;;;;;18.56;44.70;100201.25;688245;28;22402;-65
2021/05/10 00:50:13;;;;;;;2.90;2.15;;;;;;;18.54;44.71;100200.63;687957;28;23435;-65
2021/05/10 00:50:34;;;;;;;2.28;2.17;;;;;;;18.53;45.08;100199.00;686770;28;69395;-65
2021/05/10 00:50:55;;;;;;;2.60;2.00;;;;;;;18.51;44.98;100204.72;688162;28;21549;-64
2021/05/10 00:51:16;;;;;;;5.57;2.10;;;;;;;18.51;44.82;100203.84;688196;28;22398;-65
2021/05/10 00:51:38;;;;;;;2.17;1.95;;;;;;;18.51;44.89;100199.25;688165;28;23519;-64
2021/05/10 00:51:59;;;;;;;2.28;2.08;;;;;;;18.51;45.06;100204.72;688276;28;13194;-65
2021/05/10 00:52:20;;;;;;;3.60;2.20;;;;;;;18.52;45.00;100197.31;688750;28;842;-65
2021/05/10 00:52:41;;;;;;;2.23;2.00;;;;;;;18.52;44.79;100200.06;687892;28;33910;-65
2021/05/10 00:53:03;;;;;;;2.17;1.98;;;;;;;18.53;44.96;100207.19;687537;28;39204;-65
2021/05/10 00:53:24;;;;;;;1.90;1.80;;;;;;;18.53;44.92;100199.81;688388;28;15269;-65
2021/05/10 00:53:46;;;;;;;1.90;1.80;;;;;;;18.53;44.72;100202.56;688549;28;23548;-64
2021/05/10 00:54:07;;;;;;;2.08;1.98;;;;;;;18.54;45.05;100208.84;688300;28;35892;-64
2021/05/10 00:54:28;;;;;;;2.03;1.90;;;;;;;18.54;44.80;100206.97;688353;28;24508;-64
2021/05/10 00:54:50;;;;;;;2.55;1.83;;;;;;;18.53;44.75;100201.72;689502;28;1064;-64
2021/05/10 00:55:13;;;;;;;2.13;2.03;;;;;;;18.53;44.69;100201.72;686184;28;70614;-65
2021/05/10 00:55:35;;;;;;;2.25;1.88;;;;;;;18.51;45.09;100203.84;688064;28;43066;-64
2021/05/10 00:55:57;;;;;;;2.10;1.90;;;;;;;18.52;44.95;100205.53;686688;28;68526;-65
2021/05/10 00:56:18;;;;;;;2.20;2.00;;;;;;;18.50;45.03;100203.03;688015;28;44442;-64
2021/05/10 00:56:39;;;;;;;2.60;2.20;;;;;;;18.52;44.97;100197.31;690376;28;18363;-64
2021/05/10 00:57:01;;;;;;;2.03;1.85;;;;;;;18.52;45.00;100205.53;691120;28;23480;-65
2021/05/10 00:57:23;;;;;;;1.95;1.85;;;;;;;18.52;45.15;100200.06;690851;28;24485;-65
2021/05/10 00:57:47;;;;;;;2.00;1.90;;;;;;;18.53;44.94;100199.00;689694;28;44894;-65
2021/05/10 00:58:08;;;;;;;2.50;2.05;;;;;;;18.54;44.91;100200.63;688239;28;92299;-64
2021/05/10 00:58:30;;;;;;;2.08;1.98;;;;;;;18.54;44.77;100201.50;688625;28;46331;-65
2021/05/10 00:58:51;;;;;;;3.60;2.05;;;;;;;18.53;44.89;100199.81;688500;28;21563;-64
2021/05/10 00:59:13;;;;;;;2.90;1.90;;;;;;;18.53;44.61;100197.09;688551;28;22416;-64
2021/05/10 00:59:34;;;;;;;2.03;1.90;;;;;;;18.52;44.63;100198.16;686000;28;69462;-64
2021/05/10 00:59:56;;;;;;;2.10;2.00;;;;;;;18.52;44.43;100200.06;688394;28;23503;-65
2021/05/10 01:00:20;;;;;;;2.20;1.90;;;;;;;18.52;44.88;100195.41;690352;28;2422;-64
2021/05/10 01:00:41;;;;;;;1.90;1.80;;;;;;;18.52;45.14;100200.06;687541;28;89877;-64
2021/05/10 01:01:03;;;;;;;2.10;2.00;;;;;;;18.51;44.91;100196.50;689540;28;19580;-64
2021/05/10 01:01:24;;;;;;;2.05;1.90;;;;;;;18.49;44.47;100200.53;688753;28;37584;-64
2021/05/10 01:01:45;;;;;;;2.20;2.00;;;;;;;18.49;44.84;100201.38;689776;28;9714;-64
2021/05/10 01:02:06;;;;;;;2.42;2.03;;;;;;;18.49;45.04;100197.81;689372;28;22163;-64
2021/05/10 01:02:28;;;;;;;2.03;1.90;;;;;;;18.47;44.52;100197.22;688544;28;22638;-64
2021/05/10 01:02:49;;;;;;;2.22;2.05;;;;;;;18.44;44.69;100198.53;688016;28;35534;-64
2021/05/10 01:03:11;;;;;;;2.63;2.10;;;;;;;18.44;44.91;100198.53;687937;28;24385;-65
2021/05/10 01:03:33;;;;;;;2.38;2.03;;;;;;;18.43;44.71;100198.78;686859;28;46338;-64
2021/05/10 01:03:55;;;;;;;2.00;1.90;;;;;;;18.41;44.67;100200.94;687496;28;44384;-64
2021/05/10 01:04:16;;;;;;;1.95;1.85;;;;;;;18.41;44.67;100195.47;688277;28;23511;-65
2021/05/10 01:04:37;;;;;;;2.42;1.90;;;;;;;18.40;44.69;100200.13;688821;28;14664;-65
2021/05/10 01:04:58;;;;;;;2.30;2.00;;;;;;;18.40;44.96;100194.66;688039;28;23476;-65
2021/05/10 01:05:19;;;;;;;1.90;1.80;;;;;;;18.40;45.05;100193.78;688419;28;22381;-65
2021/05/10 01:05:41;;;;;;;2.08;1.95;;;;;;;18.40;44.76;100193.78;687374;28;45408;-65
2021/05/10 01:06:02;;;;;;;1.98;1.88;;;;;;;18.38;44.69;100196.78;688085;28;24338;-64
2021/05/10 01:06:23;;;;;;;2.13;1.92;;;;;;;18.39;44.89;100201.19;688789;28;4185;-64
2021/05/10 01:06:44;;;;;;;2.05;1.90;;;;;;;18.39;44.99;100198.44;687853;28;44405;-65
2021/05/10 01:07:05;;;;;;;2.10;1.98;;;;;;;18.38;44.75;100194.03;689490;28;23604;-65
2021/05/10 01:07:26;;;;;;;2.05;1.85;;;;;;;18.37;44.84;100198.69;689632;28;22349;-65
2021/05/10 01:07:48;;;;;;;1.90;1.80;;;;;;;18.36;44.97;100191.53;689773;28;21637;-64
2021/05/10 01:08:09;;;;;;;2.10;2.00;;;;;;;18.34;44.89;100199.16;689855;28;17072;-65
2021/05/10 01:08:30;;;;;;;2.78;1.88;;;;;;;18.34;44.64;100193.69;688383;28;46273;-64
2021/05/10 01:08:51;;;;;;;3.35;1.83;;;;;;;18.35;45.08;100195.38;688754;28;21512;-64
2021/05/10 01:09:12;;;;;;;2.20;1.90;;;;;;;18.33;44.83;100188.47;688430;28;23285;-64
2021/05/10 01:09:33;;;;;;;1.95;1.85;;;;;;;18.35;44.58;100194.53;688662;28;886;-65
2021/05/10 01:09:54;;;;;;;1.80;1.70;;;;;;;18.32;44.47;100198.59;688685;28;19494;-65
2021/05/10 01:10:18;;;;;;;1.83;1.73;;;;;;;18.34;44.73;100198.34;688202;28;22209;-65
2021/05/10 01:10:40;;;;;;;2.17;2.08;;;;;;;18.33;45.10;100192.03;686014;28;93290;-65
2021/05/10 01:11:01;;;;;;;2.20;2.00;;;;;;;18.33;44.67;100196.69;688385;28;23167;-64
2021/05/10 01:11:22;;;;;;;3.03;1.83;;;;;;;18.33;44.67;100202.13;688508;28;22466;-65
2021/05/10 01:11:43;;;;;;;2.38;2.00;;;;;;;18.33;44.79;100192.03;688187;28;22315;-65
2021/05/10 01:12:06;;;;;;;2.45;2.00;;;;;;;18.34;44.53;100193.69;688519;28;18967;-64
2021/05/10 01:12:27;;;;;;;2.05;1.88;;;;;;;18.36;44.59;100194.28;686583;28;67508;-64
2021/05/10 01:12:49;;;;;;;3.03;2.00;;;;;;;18.35;44.66;100195.38;688639;28;22281;-64
2021/05/10 01:13:10;;;;;;;3.58;1.98;;;;;;;18.36;44.41;100194.28;687456;28;45258;-64
2021/05/10 01:13:31;;;;;;;2.80;2.03;;;;;;;18.35;44.56;100186.31;687826;28;22224;-64
2021/05/10 01:13:52;;;;;;;2.08;1.90;;;;;;;18.35;44.66;100189.06;688711;28;22422;-65
2021/05/10 01:14:13;;;;;;;2.22;2.13;;;;;;;18.34;44.47;100187.41;688777;28;21593;-64
2021/05/10 01:14:34;;;;;;;2.10;2.00;;;;;;;18.33;44.60;100192.03;687008;28;23514;-65
2021/05/10 01:14:55;;;;;;;2.00;1.90;;;;;;;18.34;44.56;100187.41;686271;28;46175;-64
2021/05/10 01:15:19;;;;;;;2.15;2.05;;;;;;;18.33;44.74;100189.28;686124;28;43780;-65
2021/05/10 01:15:40;;;;;;;2.15;1.95;;;;;;;18.33;44.78;100193.94;685136;28;67488;-64
2021/05/10 01:16:01;;;;;;;2.22;1.90;;;;;;;18.32;44.55;100187.66;686950;28;24280;-64
2021/05/10 01:16:23;;;;;;;2.00;1.90;;;;;;;18.34;44.98;100188.22;687361;28;23416;-65
2021/05/10 01:16:45;;;;;;;2.00;1.90;;;;;;;18.36;44.47;100185.25;686643;28;44399;-65
2021/05/10 01:17:06;;;;;;;2.03;1.92;;;;;;;18.36;44.48;100188.81;687920;28;45409;-65
2021/05/10 01:17:27;;;;;;;1.92;1.83;;;;;;;18.37;44.74;100186.94;688342;28;23471;-65
2021/05/10 01:17:51;;;;;;;2.33;1.90;;;;;;;18.36;44.53;100191.53;688535;28;21531;-65
2021/05/10 01:18:12;;;;;;;3.03;1.90;;;;;;;18.36;44.49;100185.25;686956;28;62213;-65
2021/05/10 01:18:34;;;;;;;2.00;1.90;;;;;;;18.39;44.60;100184.78;687941;28;22381;-65
2021/05/10 01:18:56;;;;;;;2.70;1.90;;;;;;;18.39;44.19;100183.94;687845;28;46032;-65
2021/05/10 01:19:17;;;;;;;2.28;2.08;;;;;;;18.39;44.55;100182.03;688039;28;22439;-65
2021/05/10 01:19:38;;;;;;;2.00;1.80;;;;;;;18.39;44.81;100187.50;687128;28;43641;-65
2021/05/10 01:20:00;;;;;;;2.00;1.90;;;;;;;18.41;44.35;100187.25;688204;28;9137;-64
2021/05/10 01:20:22;;;;;;;1.90;1.80;;;;;;;18.39;44.10;100190.25;687302;28;45321;-65
2021/05/10 01:20:44;;;;;;;2.08;1.98;;;;;;;18.40;44.57;100186.44;688706;28;18150;-65
2021/05/10 01:21:06;;;;;;;2.40;2.20;;;;;;;18.40;44.35;100183.72;687152;28;44368;-65
2021/05/10 01:21:28;;;;;;;2.50;2.20;;;;;;;18.39;44.13;100178.47;687478;28;46402;-65
2021/05/10 01:21:50;;;;;;;2.10;2.00;;;;;;;18.37;44.38;100187.75;687335;28;44396;-65
2021/05/10 01:22:11;;;;;;;3.90;2.15;;;;;;;18.39;44.46;100182.03;687283;28;45342;-65
2021/05/10 01:22:39;;;;;;;2.40;1.90;;;;;;;18.40;44.32;100182.84;689189;28;21495;-65
2021/05/10 01:23:01;;;;;;;2.17;2.00;;;;;;;18.40;44.28;100180.97;685563;28;138085;-65
2021/05/10 01:23:22;;;;;;;2.10;2.00;;;;;;;18.42;44.62;100180.72;688535;28;46327;-65
2021/05/10 01:23:44;;;;;;;3.03;1.90;;;;;;;18.41;44.58;100188.09;688936;28;46214;-65
2021/05/10 01:24:06;;;;;;;2.50;1.90;;;;;;;18.41;44.23;100185.34;688527;28;44495;-65
2021/05/10 01:24:27;;;;;;;2.15;1.88;;;;;;;18.42;44.33;100180.72;687936;28;45224;-65
2021/05/10 01:24:49;;;;;;;2.70;2.03;;;;;;;18.42;44.14;100183.47;688401;28;24423;-65
2021/05/10 01:25:13;;;;;;;3.28;2.03;;;;;;;18.42;44.16;100180.72;688220;28;21524;-64
2021/05/10 01:25:35;;;;;;;4.53;2.08;;;;;;;18.41;44.38;100182.63;685319;28;114835;-64
2021/05/10 01:25:56;;;;;;;4.05;1.90;;;;;;;18.39;44.21;100187.50;688659;28;23745;-65
2021/05/10 01:26:18;;;;;;;1.90;1.80;;;;;;;18.40;44.31;100180.97;687342;28;46197;-65
2021/05/10 01:26:39;;;;;;;1.90;1.80;;;;;;;18.39;44.24;100187.50;687870;28;21558;-64
2021/05/10 01:27:00;;;;;;;2.90;2.17;;;;;;;18.39;44.42;100184.78;687873;28;34450;-65
2021/05/10 01:27:21;;;;;;;2.60;2.28;;;;;;;18.39;44.44;100186.69;687050;28;44396;-65
2021/05/10 01:27:44;;;;;;;2.10;1.90;;;;;;;18.37;44.40;100181.47;688571;28;22403;-65
2021/05/10 01:28:05;;;;;;;2.38;1.90;;;;;;;18.40;44.38;100191.91;687868;28;46327;-65
2021/05/10 01:28:26;;;;;;;2.20;2.10;;;;;;;18.39;44.44;100186.69;688062;28;23465;-65
2021/05/10 01:28:48;;;;;;;2.30;2.17;;;;;;;18.39;44.27;100189.41;687682;28;23577;-65
2021/05/10 01:29:09;;;;;;;2.00;1.90;;;;;;;18.40;44.49;100185.59;687275;28;47194;-65
2021/05/10 01:29:30;;;;;;;2.72;1.90;;;;;;;18.38;44.28;100180.38;687287;28;21545;-65
2021/05/10 01:29:51;;;;;;;2.20;1.90;;;;;;;18.34;44.33;100177.31;688255;28;22383;-66
2021/05/10 01:30:16;;;;;;;2.42;2.08;;;;;;;18.37;44.47;100181.47;687707;28;23382;-66
2021/05/10 01:30:39;;;;;;;2.92;1.80;;;;;;;18.37;44.36;100187.75;685300;28;116128;-66
2021/05/10 01:31:00;;;;;;;1.98;1.88;;;;;;;18.36;44.37;100183.34;686469;28;69304;-66
2021/05/10 01:31:21;;;;;;;2.10;2.00;;;;;;;18.35;44.35;100178.13;688487;28;23518;-65
2021/05/10 01:31:42;;;;;;;2.90;2.17;;;;;;;18.33;44.34;100183.81;687550;28;22416;-66
2021/05/10 01:32:05;;;;;;;3.08;2.00;;;;;;;18.30;44.40;100175.28;688407;28;22424;-66
2021/05/10 01:32:26;;;;;;;1.98;1.83;;;;;;;18.31;44.35;100182.44;686980;28;51772;-66
2021/05/10 01:32:48;;;;;;;2.00;1.90;;;;;;;18.30;44.71;100183.50;688376;28;995;-66
2021/05/10 01:33:10;;;;;;;2.15;1.85;;;;;;;18.27;44.42;100182.06;687803;28;46471;-65
2021/05/10 01:33:32;;;;;;;2.63;1.90;;;;;;;18.26;44.35;100183.16;689656;28;46362;-65
2021/05/10 01:33:53;;;;;;;2.15;1.95;;;;;;;18.28;44.46;100171.97;691067;28;23483;-65
2021/05/10 01:34:14;;;;;;;2.30;2.10;;;;;;;18.27;44.50;100175.78;690226;28;11232;-65
2021/05/10 01:34:36;;;;;;;2.60;2.10;;;;;;;18.27;44.70;100175.78;686675;28;44160;-65
2021/05/10 01:34:57;;;;;;;2.58;2.08;;;;;;;18.27;44.39;100171.13;687850;28;20795;-65
2021/05/10 01:35:19;;;;;;;2.30;2.10;;;;;;;18.26;44.67;100174.09;687941;28;23528;-66
2021/05/10 01:35:43;;;;;;;2.33;1.92;;;;;;;18.25;44.35;100173.28;686670;28;69488;-65
2021/05/10 01:36:04;;;;;;;2.28;1.90;;;;;;;18.26;44.56;100174.94;686016;28;68100;-66
2021/05/10 01:36:25;;;;;;;2.20;2.10;;;;;;;18.27;44.37;100173.03;687771;28;45030;-65
2021/05/10 01:36:46;;;;;;;2.08;1.98;;;;;;;18.28;44.50;100175.53;687379;28;23443;-64
2021/05/10 01:37:08;;;;;;;2.00;1.90;;;;;;;18.27;44.34;100176.59;688482;28;22369;-66
2021/05/10 01:37:29;;;;;;;2.00;1.80;;;;;;;18.29;44.44;100177.19;688361;28;1272;-65
2021/05/10 01:37:53;;;;;;;2.08;1.98;;;;;;;18.29;44.44;100174.47;690263;28;1148;-65
2021/05/10 01:38:15;;;;;;;2.20;2.10;;;;;;;18.28;44.30;100174.72;689154;28;33739;-66
2021/05/10 01:38:41;;;;;;;1.92;1.83;;;;;;;18.27;44.54;100168.41;688005;28;60664;-65
2021/05/10 01:39:04;;;;;;;1.98;1.88;;;;;;;18.27;44.43;100173.84;689479;28;15220;-65
2021/05/10 01:39:25;;;;;;;2.00;1.90;;;;;;;18.28;44.49;100172.78;688090;28;42129;-66
2021/05/10 01:39:46;;;;;;;1.80;1.70;;;;;;;18.29;44.42;100173.63;686996;28;39243;-65
2021/05/10 01:40:09;;;;;;;2.10;1.80;;;;;;;18.28;44.32;100172.78;687593;28;21558;-65
2021/05/10 01:40:31;;;;;;;2.10;1.90;;;;;;;18.29;44.29;100179.94;687786;28;43946;-66
2021/05/10 01:40:53;;;;;;;2.00;1.90;;;;;;;18.29;44.64;100176.34;688350;28;22404;-66
2021/05/10 01:41:14;;;;;;;2.03;1.80;;;;;;;18.28;44.19;100177.44;687577;28;32040;-65
2021/05/10 01:41:35;;;;;;;2.50;2.10;;;;;;;18.27;44.48;100171.13;689441;28;8403;-64
2021/05/10 01:41:56;;;;;;;2.58;1.90;;;;;;;18.28;44.45;100171.97;690986;28;6932;-65